Audubon, NY

2:43 AM EST on January 30, 2015 (GMT -0500)
Central Park | Change Station
CLOSE
Current Station
Airport
Location: Central Park,
Elevation: 154 ft
Nearby Weather Stations

Elev 154 ft 40.78 °N, 73.97 °W | Updated 45 minutes ago

Snow
Snow
33 °F
Feels Like 26 °F
N
8
Wind Variable Wind from South

Today
High -- | Low -- °F
--% Chance of Precip.
Yesterday
High -- | Low -- °F
Precip. -- in
7:08 AM 5:10 PM
Waxing Gibbous, 81% visible
Pressure 29.94 in
Visibility 1.2 miles
Clouds Scattered Clouds 1300 ft
Mostly Cloudy 2600 ft
Overcast 4600 ft
Windchill 26 °F
Dew Point 28 °F
Humidity 82%
Rainfall 0.05 in
Snow Depth Not available.
UV 0 out of 12
Pollen .10 out of 12
Air Quality Not available.
Flu Activity Not available.
SPECI KNYC 300658Z AUTO 18007KT 1 1/4SM -SN SCT013 BKN026 OVC046 01/M02 A2994 RMK AO2 P0000 T00061022

More Conditions Fewer Conditions

Pressure 29.94 in
Visibility 1.2 miles
Clouds Scattered Clouds 1300 ft
Mostly Cloudy 2600 ft
Overcast 4600 ft
Windchill 26 °F
Dew Point 28 °F
Humidity 82%
Rainfall 0.05 in
Snow Depth Not available.
UV 0 out of 12
Pollen .10 out of 12
Air Quality Not available.
Flu Activity Not available.
SPECI KNYC 300658Z AUTO 18007KT 1 1/4SM -SN SCT013 BKN026 OVC046 01/M02 A2994 RMK AO2 P0000 T00061022

More Conditions Fewer Conditions

10-Day Weather Forecast

Almanac

Astronomy

Jan. 30, 2015 Rise Set
Actual Time
Civil Twilight
Nautical Twilight
Astronomical Twilight
Moon
Length of Visible Light
Length of Day
Tomorrow will be .
, % of the Moon is Illuminated

Today's Extremes

State Highs State Lows

Community

WunderPhotos

Upload Photos

1,791,726 photos uploaded!

WunderBlogs® & News

Nearby

Air Quality

  Air Quality AQ Index Pollutant
Not available.

Snow Depth

Station Depth Elevation

Earthquake Activity

City Distance Mag. Time & Date
Minimum magnitude displayed is 2.5.

Coastal Water Temperatures

Place Temperature

Nearby Weather Stations